createdAt,value
2022-10-15T00:00:20.754Z,15.80
2022-10-15T00:02:48.437Z,15.80
2022-10-15T00:05:16.344Z,15.80
2022-10-15T00:07:44.067Z,15.80
2022-10-15T00:10:11.963Z,15.80
2022-10-15T00:12:40.090Z,15.80
2022-10-15T00:15:11.394Z,15.80
2022-10-15T00:17:39.205Z,15.80
2022-10-15T00:20:10.400Z,15.90
2022-10-15T00:22:38.253Z,15.80
2022-10-15T00:25:07.109Z,15.80
2022-10-15T00:27:35.260Z,15.80
2022-10-15T00:30:03.280Z,15.80
2022-10-15T00:32:32.868Z,15.80
2022-10-15T00:35:00.711Z,15.80
2022-10-15T00:37:28.489Z,15.90
2022-10-15T00:39:56.369Z,15.90
2022-10-15T00:42:25.018Z,15.80
2022-10-15T00:44:56.144Z,15.90
2022-10-15T00:47:38.711Z,15.90
2022-10-15T00:50:09.508Z,15.90
2022-10-15T00:52:44.933Z,15.90
2022-10-15T00:55:15.934Z,15.90
2022-10-15T00:57:45.930Z,15.90
2022-10-15T01:00:16.257Z,15.90
2022-10-15T01:02:46.527Z,15.80
2022-10-15T01:05:15.970Z,15.70
2022-10-15T01:07:43.878Z,15.70
2022-10-15T01:10:12.407Z,15.70
2022-10-15T01:13:03.657Z,15.70
2022-10-15T01:15:40.868Z,15.80
2022-10-15T01:18:15.591Z,15.80
2022-10-15T01:20:56.584Z,15.70
2022-10-15T01:23:59.586Z,15.60
2022-10-15T01:26:52.474Z,15.60
2022-10-15T01:29:30.204Z,15.50
2022-10-15T01:32:04.474Z,15.30
2022-10-15T01:34:39.647Z,15.30
2022-10-15T01:37:12.604Z,15.30
2022-10-15T01:39:42.395Z,15.30
2022-10-15T01:42:18.262Z,15.40
2022-10-15T01:44:50.165Z,15.40
2022-10-15T01:47:24.719Z,15.40
2022-10-15T01:49:55.024Z,15.50
2022-10-15T01:52:27.876Z,15.50
2022-10-15T01:54:56.448Z,15.40
2022-10-15T01:57:28.223Z,15.50
2022-10-15T01:59:56.297Z,15.40
2022-10-15T02:02:25.661Z,15.40
2022-10-15T02:04:53.817Z,15.40
2022-10-15T02:07:30.791Z,15.40
2022-10-15T02:10:01.926Z,15.40
2022-10-15T02:12:38.636Z,15.40
2022-10-15T02:21:43.005Z,15.40
2022-10-15T02:24:18.280Z,15.20
2022-10-15T02:26:50.689Z,15.00
2022-10-15T02:29:23.923Z,15.00
2022-10-15T02:31:56.238Z,14.90
2022-10-15T02:34:29.195Z,14.90
2022-10-15T02:37:10.467Z,15.00
2022-10-15T02:39:43.905Z,15.00
2022-10-15T02:42:12.883Z,15.00
2022-10-15T02:44:41.502Z,15.10
2022-10-15T02:47:13.153Z,15.00
2022-10-15T02:49:46.608Z,15.00
2022-10-15T02:52:16.144Z,15.10
2022-10-15T02:54:54.857Z,15.10
2022-10-15T02:57:42.289Z,15.10
2022-10-15T03:00:31.110Z,15.10
2022-10-15T03:03:24.829Z,15.00
2022-10-15T03:05:53.948Z,15.10
2022-10-15T03:08:25.671Z,15.10
2022-10-15T03:11:00.099Z,15.10
2022-10-15T03:13:42.506Z,15.00
2022-10-15T03:16:22.805Z,15.00
2022-10-15T03:18:52.581Z,15.00
2022-10-15T03:21:31.733Z,15.00
2022-10-15T03:24:11.841Z,15.00
2022-10-15T03:26:43.464Z,15.00
2022-10-15T03:29:29.976Z,14.90
2022-10-15T03:32:00.469Z,14.80
2022-10-15T03:34:38.641Z,14.70
2022-10-15T03:37:09.864Z,14.60
2022-10-15T03:39:44.800Z,14.50
2022-10-15T03:42:13.112Z,14.40
2022-10-15T03:44:41.655Z,14.40
2022-10-15T03:47:10.078Z,14.30
2022-10-15T03:49:43.679Z,14.20
2022-10-15T03:52:13.579Z,14.10
2022-10-15T03:54:43.232Z,14.00
2022-10-15T03:57:17.356Z,13.90
2022-10-15T03:59:52.389Z,13.90
2022-10-15T04:02:21.302Z,13.90
2022-10-15T04:04:55.505Z,13.80
2022-10-15T04:07:24.062Z,13.70
2022-10-15T04:09:53.831Z,13.70
2022-10-15T04:12:22.269Z,13.60
2022-10-15T04:14:51.006Z,13.60
2022-10-15T04:17:19.125Z,13.70
2022-10-15T04:19:47.389Z,13.70
2022-10-15T04:22:16.329Z,13.80
2022-10-15T04:24:44.817Z,13.90
2022-10-15T04:27:17.800Z,13.90
2022-10-15T04:29:51.418Z,14.00
2022-10-15T04:32:19.686Z,14.00
2022-10-15T04:34:48.785Z,14.10
2022-10-15T04:37:17.052Z,14.10
2022-10-15T04:39:45.163Z,14.20
2022-10-15T04:42:14.764Z,14.30
2022-10-15T04:44:42.783Z,14.30
2022-10-15T04:47:11.072Z,14.40
2022-10-15T04:49:39.827Z,14.40
2022-10-15T04:52:07.747Z,14.40
2022-10-15T04:54:35.886Z,14.40
2022-10-15T04:57:10.962Z,14.30
2022-10-15T04:59:41.381Z,14.30
2022-10-15T05:02:11.312Z,14.40
2022-10-15T05:04:39.889Z,14.40
2022-10-15T05:07:11.769Z,14.40
2022-10-15T05:09:45.317Z,14.40
2022-10-15T05:12:14.942Z,14.50
2022-10-15T05:14:44.837Z,14.50
2022-10-15T05:17:12.983Z,14.60
2022-10-15T05:19:41.391Z,14.60
2022-10-15T05:22:12.732Z,14.60
2022-10-15T05:24:41.076Z,14.60
2022-10-15T05:27:11.085Z,14.60
2022-10-15T05:29:39.967Z,14.60
2022-10-15T05:32:12.513Z,14.50
2022-10-15T05:34:41.139Z,14.50
2022-10-15T05:37:10.063Z,14.50
2022-10-15T05:39:38.194Z,14.50
2022-10-15T05:42:06.309Z,14.40
2022-10-15T05:44:37.023Z,14.40
2022-10-15T05:47:06.728Z,14.40
2022-10-15T05:49:36.548Z,14.40
2022-10-15T05:52:06.803Z,14.40
2022-10-15T05:54:36.697Z,14.40
2022-10-15T05:57:05.032Z,14.50
2022-10-15T05:59:35.047Z,14.50
2022-10-15T06:02:03.351Z,14.50
2022-10-15T06:04:35.702Z,14.50
2022-10-15T06:07:07.735Z,14.60
2022-10-15T06:09:37.884Z,14.50
2022-10-15T06:12:06.139Z,14.50
2022-10-15T06:14:36.757Z,14.50
2022-10-15T06:17:09.715Z,14.50
2022-10-15T06:19:39.336Z,14.50
2022-10-15T06:22:08.656Z,14.50
2022-10-15T06:24:41.367Z,14.50
2022-10-15T06:27:13.938Z,14.50
2022-10-15T06:29:45.399Z,14.50
2022-10-15T06:32:23.173Z,14.50
2022-10-15T06:35:00.180Z,14.60
2022-10-15T06:37:32.150Z,14.60
2022-10-15T06:40:02.393Z,14.60
2022-10-15T06:42:30.605Z,14.60
2022-10-15T06:47:52.511Z,14.70
2022-10-15T06:50:22.658Z,14.70
2022-10-15T06:52:52.148Z,14.70
2022-10-15T06:55:20.460Z,14.70
2022-10-15T06:57:50.322Z,14.70
2022-10-15T07:00:23.552Z,14.70
2022-10-15T07:03:19.405Z,14.70
2022-10-15T07:06:02.574Z,14.80
2022-10-15T07:11:25.315Z,14.80
2022-10-15T07:13:58.264Z,14.90
2022-10-15T07:16:36.211Z,14.90
2022-10-15T07:19:09.012Z,14.90
2022-10-15T07:22:36.901Z,15.00
2022-10-15T07:25:10.108Z,15.00
2022-10-15T07:27:38.306Z,15.00
2022-10-15T07:30:11.407Z,15.10
2022-10-15T07:32:53.265Z,15.00
2022-10-15T07:35:39.836Z,15.10
2022-10-15T07:38:10.451Z,15.00
2022-10-15T07:40:52.724Z,15.10
2022-10-15T07:43:44.878Z,15.10
2022-10-15T07:46:41.827Z,15.10
2022-10-15T07:49:35.688Z,15.10
2022-10-15T07:53:00.449Z,15.10
2022-10-15T07:55:27.506Z,15.20
2022-10-15T07:58:36.698Z,15.20
2022-10-15T08:01:28.033Z,15.30
2022-10-15T08:08:21.123Z,15.30
2022-10-15T08:11:00.424Z,15.30
2022-10-15T08:17:15.906Z,15.20
2022-10-15T08:47:07.282Z,15.00
2022-10-15T08:49:44.860Z,15.00
2022-10-15T08:52:21.168Z,15.10
2022-10-15T08:54:49.234Z,15.10
2022-10-15T08:57:27.961Z,15.10
2022-10-15T09:00:01.192Z,15.30
2022-10-15T09:02:35.461Z,15.30
2022-10-15T09:05:12.346Z,15.30
2022-10-15T09:07:50.830Z,15.30
2022-10-15T09:10:33.163Z,15.30
2022-10-15T09:13:04.509Z,15.30
2022-10-15T09:15:37.634Z,15.40
2022-10-15T09:18:12.424Z,15.40
2022-10-15T09:20:40.401Z,15.40
2022-10-15T09:23:16.050Z,15.40
2022-10-15T09:25:50.140Z,15.20
2022-10-15T09:28:26.769Z,15.20
2022-10-15T09:30:58.090Z,15.20
2022-10-15T09:33:36.659Z,15.30
2022-10-15T09:36:22.933Z,15.40
2022-10-15T09:39:02.620Z,15.50
2022-10-15T09:41:44.242Z,15.70
2022-10-15T09:44:15.803Z,15.70
2022-10-15T09:46:46.724Z,15.60
2022-10-15T09:49:21.477Z,15.60
2022-10-15T09:51:58.731Z,15.60
2022-10-15T09:54:34.379Z,15.60
2022-10-15T09:57:02.247Z,15.70
2022-10-15T10:02:18.422Z,15.70
2022-10-15T10:04:47.629Z,15.80
2022-10-15T10:07:34.059Z,15.90
2022-10-15T10:10:06.042Z,15.90
2022-10-15T10:12:36.226Z,15.90
2022-10-15T10:15:09.642Z,15.90
2022-10-15T10:17:37.616Z,15.90
2022-10-15T10:20:16.295Z,15.90
2022-10-15T10:22:49.025Z,16.00
2022-10-15T10:25:31.518Z,16.10
2022-10-15T10:28:05.443Z,16.10
2022-10-15T10:30:37.706Z,16.20
2022-10-15T10:33:06.701Z,16.30
2022-10-15T10:35:46.711Z,16.20
2022-10-15T10:38:22.576Z,16.20
2022-10-15T10:40:55.368Z,16.30
2022-10-15T10:43:26.908Z,16.30
2022-10-15T10:45:59.057Z,16.40
2022-10-15T10:48:29.692Z,16.40
2022-10-15T10:51:09.352Z,16.50
2022-10-15T10:53:52.756Z,16.50
2022-10-15T10:56:24.272Z,16.50
2022-10-15T10:58:59.061Z,16.60
2022-10-15T11:01:26.887Z,16.60
2022-10-15T11:03:54.717Z,16.60
2022-10-15T11:06:40.688Z,16.60
2022-10-15T11:09:20.469Z,16.60
2022-10-15T11:11:58.125Z,16.70
2022-10-15T11:14:35.980Z,16.90
2022-10-15T11:17:13.942Z,17.20
2022-10-15T11:22:47.375Z,17.50
2022-10-15T11:25:29.418Z,17.70
2022-10-15T11:28:07.735Z,18.00
2022-10-15T11:30:44.750Z,18.00
2022-10-15T11:33:24.872Z,18.10
2022-10-15T11:35:58.939Z,18.10
2022-10-15T11:38:38.237Z,18.10
2022-10-15T11:41:22.027Z,18.20
2022-10-15T11:44:04.978Z,18.20
2022-10-15T11:46:42.786Z,18.40
2022-10-15T11:49:25.250Z,18.50
2022-10-15T11:52:14.070Z,18.60
2022-10-15T11:54:47.896Z,18.50
2022-10-15T11:57:19.857Z,18.40
2022-10-15T11:59:52.347Z,18.30
2022-10-15T12:02:24.791Z,18.20
2022-10-15T12:04:55.888Z,18.10
2022-10-15T12:07:26.676Z,17.90
2022-10-15T12:10:01.539Z,17.80
2022-10-15T12:12:38.406Z,17.90
2022-10-15T12:15:17.435Z,17.90
2022-10-15T12:17:51.744Z,18.00
2022-10-15T12:20:22.458Z,18.10
2022-10-15T12:22:59.938Z,18.10
2022-10-15T12:25:45.127Z,18.10
2022-10-15T12:28:19.451Z,18.00
2022-10-15T12:31:01.134Z,18.00
2022-10-15T12:33:37.687Z,18.00
2022-10-15T12:36:10.554Z,17.80
2022-10-15T12:38:41.001Z,17.70
2022-10-15T12:41:12.101Z,17.60
2022-10-15T12:43:43.774Z,17.60
2022-10-15T12:46:14.434Z,17.60
2022-10-15T12:48:44.551Z,17.60
2022-10-15T12:51:39.856Z,17.80
2022-10-15T12:54:36.487Z,17.80
2022-10-15T12:57:44.469Z,17.70
2022-10-15T13:00:31.880Z,17.70
2022-10-15T13:03:11.014Z,17.80
2022-10-15T13:05:38.984Z,17.80
2022-10-15T13:08:15.856Z,17.90
2022-10-15T13:10:49.299Z,17.90
2022-10-15T13:13:23.274Z,17.90
2022-10-15T13:16:00.114Z,18.00
2022-10-15T13:18:30.586Z,18.20
2022-10-15T13:20:58.945Z,18.30
2022-10-15T13:23:31.102Z,18.40
2022-10-15T13:26:13.655Z,18.50
2022-10-15T13:28:44.737Z,18.50
2022-10-15T13:31:29.075Z,18.60
2022-10-15T13:34:01.415Z,18.60
2022-10-15T13:36:32.338Z,18.60
2022-10-15T13:39:02.236Z,18.70
2022-10-15T13:41:32.414Z,18.70
2022-10-15T13:44:02.570Z,18.80
2022-10-15T13:46:33.661Z,18.70
2022-10-15T13:49:03.368Z,18.80
2022-10-15T13:51:35.269Z,18.80
2022-10-15T13:54:08.618Z,18.80
2022-10-15T13:56:36.681Z,18.80
2022-10-15T13:59:06.229Z,18.80
2022-10-15T14:01:36.149Z,18.80
2022-10-15T14:04:04.803Z,18.90
2022-10-15T14:06:34.603Z,18.90
2022-10-15T14:09:14.877Z,18.90
2022-10-15T14:11:42.664Z,18.70
2022-10-15T14:14:30.010Z,18.60
2022-10-15T14:16:59.922Z,18.50
2022-10-15T14:19:30.612Z,18.40
2022-10-15T14:21:59.095Z,18.20
2022-10-15T14:24:33.345Z,18.10
2022-10-15T14:27:07.382Z,18.10
2022-10-15T14:29:42.823Z,18.00
2022-10-15T14:32:25.937Z,17.90
2022-10-15T14:34:54.945Z,17.90
2022-10-15T14:37:40.096Z,17.90
2022-10-15T14:40:21.138Z,17.80
2022-10-15T14:43:01.673Z,17.70
2022-10-15T14:45:32.809Z,17.70
2022-10-15T14:48:04.014Z,17.80
2022-10-15T14:50:33.689Z,18.00
2022-10-15T14:53:06.383Z,18.10
2022-10-15T14:55:38.687Z,18.20
2022-10-15T14:58:09.975Z,18.30
2022-10-15T15:00:43.929Z,18.30
2022-10-15T15:03:15.928Z,18.30
2022-10-15T15:05:48.735Z,18.30
2022-10-15T15:08:16.897Z,18.20
2022-10-15T15:10:45.613Z,18.20
2022-10-15T15:13:18.507Z,18.20
2022-10-15T15:15:47.878Z,18.10
2022-10-15T15:18:16.084Z,18.20
2022-10-15T15:20:46.022Z,18.20
2022-10-15T15:23:18.372Z,18.20
2022-10-15T15:25:46.915Z,18.20
2022-10-15T15:28:16.527Z,18.20
2022-10-15T15:30:45.905Z,18.30
2022-10-15T15:33:16.421Z,18.30
2022-10-15T15:35:51.098Z,18.40
2022-10-15T15:38:19.424Z,18.40
2022-10-15T15:40:47.379Z,18.40
2022-10-15T15:43:16.807Z,18.30
2022-10-15T15:45:45.001Z,18.20
2022-10-15T15:48:12.823Z,18.20
2022-10-15T15:50:41.999Z,18.10
2022-10-15T15:53:12.530Z,18.10
2022-10-15T15:55:40.419Z,18.00
2022-10-15T15:58:08.148Z,18.00
2022-10-15T16:00:36.028Z,18.00
2022-10-15T16:03:03.931Z,17.90
2022-10-15T16:05:31.762Z,17.80
2022-10-15T16:08:00.848Z,17.70
2022-10-15T16:10:28.575Z,17.60
2022-10-15T16:12:56.530Z,17.60
2022-10-15T16:15:24.333Z,17.50
2022-10-15T16:17:52.057Z,17.50
2022-10-15T16:20:20.403Z,17.50
2022-10-15T16:22:50.606Z,17.40
2022-10-15T16:25:20.333Z,17.40
2022-10-15T16:27:49.213Z,17.40
2022-10-15T16:30:17.194Z,17.40
2022-10-15T16:32:44.925Z,17.30
2022-10-15T16:35:12.654Z,17.30
2022-10-15T16:37:40.454Z,17.30
2022-10-15T16:40:09.493Z,17.30
2022-10-15T16:42:38.553Z,17.20
2022-10-15T16:45:07.125Z,17.30
2022-10-15T16:47:35.089Z,17.20
2022-10-15T16:50:03.052Z,17.20
2022-10-15T16:52:30.942Z,17.20
2022-10-15T16:54:58.725Z,17.20
2022-10-15T16:57:27.056Z,17.10
2022-10-15T16:59:56.275Z,17.10
2022-10-15T17:02:24.233Z,17.10
2022-10-15T17:04:52.942Z,17.00
2022-10-15T17:07:20.714Z,17.00
2022-10-15T17:12:17.646Z,17.00
2022-10-15T17:14:50.691Z,17.00
2022-10-15T17:17:20.236Z,17.00
2022-10-15T17:19:48.026Z,17.00
2022-10-15T17:22:15.770Z,17.00
2022-10-15T17:24:43.680Z,17.00
2022-10-15T17:27:11.414Z,16.90
2022-10-15T17:29:39.173Z,16.80
2022-10-15T17:32:06.927Z,16.90
2022-10-15T17:34:36.035Z,16.90
2022-10-15T17:37:03.873Z,17.00
2022-10-15T17:39:31.615Z,16.90
2022-10-15T17:41:59.405Z,16.90
2022-10-15T17:44:27.180Z,16.90
2022-10-15T17:46:54.903Z,16.90
2022-10-15T17:49:22.749Z,16.80
2022-10-15T17:51:51.914Z,16.80
2022-10-15T17:54:19.727Z,16.80
2022-10-15T17:56:48.596Z,16.80
2022-10-15T17:59:16.535Z,16.80
2022-10-15T18:02:01.041Z,16.80
2022-10-15T18:04:30.249Z,16.70
2022-10-15T18:06:59.500Z,16.70
2022-10-15T18:09:28.346Z,16.70
2022-10-15T18:11:56.802Z,16.70
2022-10-15T18:14:24.658Z,16.70
2022-10-15T18:16:52.503Z,16.70
2022-10-15T18:19:20.850Z,16.70
2022-10-15T18:21:49.934Z,16.70
2022-10-15T18:24:21.948Z,16.70
2022-10-15T18:26:50.411Z,16.60
2022-10-15T18:29:18.546Z,16.60
2022-10-15T18:31:46.609Z,16.60
2022-10-15T18:34:14.374Z,16.60
2022-10-15T18:36:43.494Z,16.60
2022-10-15T18:39:11.840Z,16.60
2022-10-15T18:41:41.324Z,16.60
2022-10-15T18:44:14.789Z,16.60
2022-10-15T18:46:44.806Z,16.60
2022-10-15T18:49:13.351Z,16.70
2022-10-15T18:51:41.125Z,16.70
2022-10-15T18:54:10.947Z,16.80
2022-10-15T18:56:40.337Z,16.80
2022-10-15T18:59:08.157Z,16.80
2022-10-15T19:01:38.759Z,16.80
2022-10-15T19:04:08.398Z,16.90
2022-10-15T19:06:37.824Z,16.90
2022-10-15T19:09:07.889Z,17.00
2022-10-15T19:11:36.257Z,17.00
2022-10-15T19:14:05.938Z,17.00
2022-10-15T19:16:35.202Z,16.90
2022-10-15T19:19:05.829Z,16.90
2022-10-15T19:21:34.083Z,16.90
2022-10-15T19:24:02.035Z,16.80
2022-10-15T19:26:29.901Z,16.80
2022-10-15T19:28:58.227Z,16.70
2022-10-15T19:31:29.273Z,16.70
2022-10-15T19:33:58.718Z,16.60
2022-10-15T19:36:29.002Z,16.50
2022-10-15T19:38:57.194Z,16.30
2022-10-15T19:41:25.123Z,16.40
2022-10-15T19:43:52.925Z,16.40
2022-10-15T19:46:21.935Z,16.50
2022-10-15T19:48:51.006Z,16.60
2022-10-15T19:51:19.067Z,16.70
2022-10-15T19:53:46.801Z,16.80
2022-10-15T19:56:14.594Z,16.80
2022-10-15T19:58:42.356Z,16.80
2022-10-15T20:01:11.895Z,16.80
2022-10-15T20:03:40.069Z,16.80
2022-10-15T20:06:09.548Z,16.80
2022-10-15T20:08:37.341Z,16.80
2022-10-15T20:11:07.959Z,16.70
2022-10-15T20:13:37.118Z,16.80
2022-10-15T20:16:07.382Z,16.80
2022-10-15T20:18:35.874Z,16.80
2022-10-15T20:21:10.172Z,16.90
2022-10-15T20:23:39.056Z,16.90
2022-10-15T20:26:08.209Z,16.90
2022-10-15T20:28:37.285Z,17.00
2022-10-15T20:31:07.349Z,16.90
2022-10-15T20:33:35.533Z,16.90
2022-10-15T20:36:07.577Z,16.80
2022-10-15T20:38:39.186Z,16.80
2022-10-15T20:41:08.398Z,16.70
2022-10-15T20:43:36.346Z,16.70
2022-10-15T20:46:04.579Z,16.70
2022-10-15T20:48:33.805Z,16.80
2022-10-15T20:51:02.002Z,16.80
2022-10-15T20:53:31.194Z,16.80
2022-10-15T20:56:01.237Z,16.80
2022-10-15T20:58:29.198Z,16.80
2022-10-15T21:00:57.042Z,16.70
2022-10-15T21:03:25.292Z,16.70
2022-10-15T21:05:53.206Z,16.60
2022-10-15T21:08:20.941Z,16.60
2022-10-15T21:10:48.661Z,16.50
2022-10-15T21:13:17.763Z,16.40
2022-10-15T21:15:45.522Z,16.30
2022-10-15T21:18:13.266Z,16.30
2022-10-15T21:20:41.019Z,16.20
2022-10-15T21:23:08.732Z,16.10
2022-10-15T21:25:36.473Z,16.20
2022-10-15T21:28:04.336Z,16.20
2022-10-15T21:30:33.436Z,16.20
2022-10-15T21:33:01.164Z,16.30
2022-10-15T21:35:28.899Z,16.30
2022-10-15T21:37:56.640Z,16.30
2022-10-15T21:40:24.374Z,16.30
2022-10-15T21:42:52.107Z,16.30
2022-10-15T21:45:19.858Z,16.30
2022-10-15T21:47:48.906Z,16.20
2022-10-15T21:50:16.784Z,16.20
2022-10-15T21:52:44.699Z,16.20
2022-10-15T21:55:12.451Z,16.10
2022-10-15T21:57:40.235Z,16.10
2022-10-15T22:00:13.326Z,16.20
2022-10-15T22:02:41.031Z,16.30
2022-10-15T22:05:10.388Z,16.30
2022-10-15T22:07:40.238Z,16.20
2022-10-15T22:10:08.789Z,16.00
2022-10-15T22:12:36.515Z,16.00
2022-10-15T22:15:04.542Z,16.00
2022-10-15T22:17:32.274Z,15.90
2022-10-15T22:20:00.019Z,15.80
2022-10-15T22:22:29.070Z,15.70
2022-10-15T22:24:59.495Z,15.60
2022-10-15T22:27:27.766Z,15.60
2022-10-15T22:29:55.530Z,15.50
2022-10-15T22:32:23.569Z,15.50
2022-10-15T22:34:51.461Z,15.50
2022-10-15T22:37:19.176Z,15.50
2022-10-15T22:39:48.330Z,15.50
2022-10-15T22:42:16.070Z,15.40
2022-10-15T22:44:44.305Z,15.30
2022-10-15T22:47:12.026Z,15.40
2022-10-15T22:49:39.913Z,15.30
2022-10-15T22:52:07.659Z,15.20
2022-10-15T22:54:35.586Z,15.20
2022-10-15T22:57:04.825Z,15.20
2022-10-15T22:59:32.612Z,15.20
2022-10-15T23:02:00.337Z,15.20
2022-10-15T23:04:28.077Z,15.20
2022-10-15T23:06:55.850Z,15.10
2022-10-15T23:09:23.574Z,15.10
2022-10-15T23:11:51.399Z,15.00
2022-10-15T23:14:20.525Z,15.00
2022-10-15T23:16:48.999Z,14.90
2022-10-15T23:19:19.046Z,14.90
2022-10-15T23:21:48.081Z,14.90
2022-10-15T23:24:16.998Z,14.90
2022-10-15T23:26:45.157Z,14.90
2022-10-15T23:29:15.635Z,14.90
2022-10-15T23:31:45.463Z,14.90
2022-10-15T23:34:16.073Z,14.80
2022-10-15T23:36:44.782Z,14.80
2022-10-15T23:39:15.171Z,14.80
2022-10-15T23:41:43.549Z,14.90
2022-10-15T23:44:11.725Z,15.00
2022-10-15T23:46:39.942Z,15.00
2022-10-15T23:49:09.499Z,15.00
2022-10-15T23:51:37.617Z,15.00
2022-10-15T23:54:13.048Z,15.00
2022-10-15T23:56:40.756Z,15.00
2022-10-15T23:59:09.094Z,15.00
